Time;durP1;ratioP1;P1;durP2;ratioP2;P2;SDS_P1;SDS_P2;PMS_P1;PMS_P2;Temp;Humidity;BMP_temperature;BMP_pressure;BME280_temperature;BME280_humidity;BME280_pressure;Samples;Min_cycle;Max_cycle;Signal;HPM_P1;HPM_P2
2022/07/13 00:02:25;;;;;;;2.88;1.70;;;;;;;;;;4956924;28;20641;-64
2022/07/13 00:04:51;;;;;;;3.20;1.70;;;;;;;;;;4956722;28;20039;-64
2022/07/13 00:07:16;;;;;;;4.43;1.80;;;;;;;;;;4956642;28;20106;-65
2022/07/13 00:09:43;;;;;;;2.70;1.98;;;;;;;;;;4956575;28;20031;-64
2022/07/13 00:12:09;;;;;;;6.40;2.00;;;;;;;;;;4956583;28;20027;-65
2022/07/13 00:14:35;;;;;;;5.38;1.73;;;;;;;;;;4956837;28;20051;-69
2022/07/13 00:17:01;;;;;;;5.60;2.20;;;;;;;;;;4956906;28;20027;-65
2022/07/13 00:19:27;;;;;;;4.28;2.05;;;;;;;;;;4956562;28;20497;-65
2022/07/13 00:21:54;;;;;;;4.53;2.20;;;;;;;;;;4956358;28;20094;-64
2022/07/13 00:25:02;;;;;;;4.07;2.28;;;;;;;;;;4964176;28;20038;-66
2022/07/13 00:27:30;;;;;;;3.47;1.98;;;;;;;;;;4934994;29;20134;-66
2022/07/13 00:29:56;;;;;;;3.05;2.08;;;;;;;;;;4934661;29;20114;-71
2022/07/13 00:32:22;;;;;;;4.55;2.60;;;;;;;;;;4934631;29;20039;-69
2022/07/13 00:34:48;;;;;;;8.30;2.30;;;;;;;;;;4918437;29;20440;-71
2022/07/13 00:37:14;;;;;;;3.53;2.20;;;;;;;;;;4949121;29;20066;-65
2022/07/13 00:39:39;;;;;;;3.70;2.30;;;;;;;;;;4952590;28;20023;-72
2022/07/13 00:42:05;;;;;;;3.70;2.60;;;;;;;;;;4937702;29;20172;-67
2022/07/13 00:44:31;;;;;;;11.20;8.25;;;;;;;;;;4953590;29;20032;-69
2022/07/13 00:46:57;;;;;;;15.98;11.18;;;;;;;;;;4953913;29;20091;-65
2022/07/13 00:49:23;;;;;;;20.88;12.73;;;;;;;;;;4947864;29;20033;-65
2022/07/13 00:51:50;;;;;;;16.63;11.80;;;;;;;;;;4941744;29;20043;-65
2022/07/13 00:54:19;;;;;;;20.02;13.77;;;;;;;;;;4936622;29;20097;-65
2022/07/13 00:56:48;;;;;;;17.42;11.27;;;;;;;;;;4945557;29;20055;-68
2022/07/13 00:59:14;;;;;;;8.18;6.22;;;;;;;;;;4955511;29;20047;-64
2022/07/13 01:01:41;;;;;;;13.00;6.50;;;;;;;;;;4959751;28;20066;-65
2022/07/13 01:04:07;;;;;;;9.20;5.90;;;;;;;;;;4955749;29;20086;-69
2022/07/13 01:06:33;;;;;;;9.50;6.20;;;;;;;;;;4954624;29;20031;-67
2022/07/13 01:09:00;;;;;;;8.73;4.80;;;;;;;;;;4970013;28;20029;-67
2022/07/13 01:11:26;;;;;;;6.70;5.20;;;;;;;;;;4974004;28;20039;-68
2022/07/13 01:13:55;;;;;;;8.25;5.20;;;;;;;;;;4973935;28;20029;-65
2022/07/13 01:16:22;;;;;;;12.45;5.43;;;;;;;;;;4966587;28;20061;-67
2022/07/13 01:18:49;;;;;;;11.75;5.78;;;;;;;;;;4974930;28;20026;-66
2022/07/13 01:21:15;;;;;;;8.55;5.22;;;;;;;;;;4973737;28;20108;-65
2022/07/13 01:23:41;;;;;;;9.13;5.47;;;;;;;;;;4975050;28;20031;-69
2022/07/13 01:26:08;;;;;;;7.25;5.03;;;;;;;;;;4974946;28;20046;-67
2022/07/13 01:28:33;;;;;;;7.75;5.30;;;;;;;;;;4973693;28;20031;-69
2022/07/13 01:30:59;;;;;;;10.00;5.00;;;;;;;;;;4974675;28;20038;-67
2022/07/13 01:33:25;;;;;;;9.20;5.10;;;;;;;;;;4972430;28;20030;-67
2022/07/13 01:35:51;;;;;;;8.15;4.57;;;;;;;;;;4973023;28;20561;-66
2022/07/13 01:38:17;;;;;;;8.45;5.22;;;;;;;;;;4973420;28;20035;-66
2022/07/13 01:40:44;;;;;;;9.32;5.32;;;;;;;;;;4974277;28;20046;-66
2022/07/13 01:43:10;;;;;;;6.47;5.25;;;;;;;;;;4972809;28;20031;-69
2022/07/13 01:45:38;;;;;;;7.72;5.13;;;;;;;;;;4972161;28;20035;-69
2022/07/13 01:48:04;;;;;;;6.90;5.03;;;;;;;;;;4974457;28;20027;-66
2022/07/13 01:50:30;;;;;;;6.35;4.20;;;;;;;;;;4973619;28;20069;-65
2022/07/13 01:52:56;;;;;;;8.57;4.40;;;;;;;;;;4974272;28;20051;-66
2022/07/13 01:55:22;;;;;;;10.52;6.03;;;;;;;;;;4972870;28;20066;-66
2022/07/13 02:01:29;;;;;;;8.57;5.07;;;;;;;;;;4969733;28;20048;-70
2022/07/13 02:03:55;;;;;;;10.55;5.40;;;;;;;;;;4972583;28;20198;-66
2022/07/13 02:06:21;;;;;;;8.85;5.40;;;;;;;;;;4973921;28;20370;-70
2022/07/13 02:08:47;;;;;;;9.82;5.55;;;;;;;;;;4972330;28;20041;-70
2022/07/13 02:11:17;;;;;;;9.98;6.03;;;;;;;;;;4972946;28;20110;-68
2022/07/13 02:13:45;;;;;;;8.32;5.50;;;;;;;;;;4971108;28;20047;-71
2022/07/13 02:16:12;;;;;;;8.95;5.53;;;;;;;;;;4973291;28;20034;-66
2022/07/13 02:18:39;;;;;;;7.07;5.07;;;;;;;;;;4972820;28;20508;-66
2022/07/13 02:21:05;;;;;;;10.00;5.78;;;;;;;;;;4972510;28;20034;-66
2022/07/13 02:23:31;;;;;;;9.00;4.80;;;;;;;;;;4973958;28;20450;-66
2022/07/13 02:25:57;;;;;;;12.90;5.53;;;;;;;;;;4973953;28;20022;-66
2022/07/13 02:28:22;;;;;;;8.85;4.93;;;;;;;;;;4973800;28;20093;-69
2022/07/13 02:30:49;;;;;;;9.25;5.25;;;;;;;;;;4972178;28;20030;-67
2022/07/13 02:33:15;;;;;;;22.70;6.38;;;;;;;;;;4987624;28;20126;-66
2022/07/13 02:35:42;;;;;;;22.10;6.70;;;;;;;;;;4972378;28;20490;-68
2022/07/13 02:38:08;;;;;;;19.70;6.00;;;;;;;;;;4972556;28;20073;-67
2022/07/13 02:40:34;;;;;;;11.05;5.07;;;;;;;;;;4972575;28;20030;-66
2022/07/13 02:43:00;;;;;;;12.45;5.93;;;;;;;;;;4973958;28;20433;-67
2022/07/13 02:45:26;;;;;;;11.48;5.07;;;;;;;;;;4972146;28;20029;-66
2022/07/13 02:47:53;;;;;;;10.45;5.55;;;;;;;;;;4972249;28;20090;-66
2022/07/13 02:50:19;;;;;;;14.65;6.15;;;;;;;;;;4972015;28;20441;-67
2022/07/13 02:52:46;;;;;;;19.52;5.57;;;;;;;;;;4971805;28;20043;-68
2022/07/13 02:55:12;;;;;;;10.93;5.57;;;;;;;;;;4972119;28;20031;-66
2022/07/13 02:57:39;;;;;;;18.77;5.68;;;;;;;;;;4972037;28;20043;-66
2022/07/13 03:00:08;;;;;;;7.10;4.28;;;;;;;;;;4972735;28;20489;-67
2022/07/13 03:02:35;;;;;;;10.07;4.18;;;;;;;;;;4971589;28;20035;-67
2022/07/13 03:05:02;;;;;;;7.55;4.57;;;;;;;;;;4956576;28;20058;-68
2022/07/13 03:07:28;;;;;;;10.98;5.28;;;;;;;;;;4972101;28;20043;-68
2022/07/13 03:09:54;;;;;;;10.00;4.75;;;;;;;;;;4973206;28;20077;-66
2022/07/13 03:12:20;;;;;;;8.35;4.90;;;;;;;;;;4972016;28;20035;-66
2022/07/13 03:14:46;;;;;;;12.40;4.65;;;;;;;;;;4973055;28;20038;-65
2022/07/13 03:17:12;;;;;;;8.90;4.78;;;;;;;;;;4955146;28;20403;-68
2022/07/13 03:19:37;;;;;;;11.38;4.35;;;;;;;;;;4952527;29;20028;-66
2022/07/13 03:22:04;;;;;;;11.63;4.82;;;;;;;;;;4952277;29;20039;-66
2022/07/13 03:24:31;;;;;;;21.17;5.55;;;;;;;;;;4952291;29;20407;-67
2022/07/13 03:26:58;;;;;;;24.05;5.20;;;;;;;;;;4952398;29;20098;-66
2022/07/13 03:29:25;;;;;;;9.85;4.40;;;;;;;;;;4952415;29;20389;-66
2022/07/13 03:31:52;;;;;;;14.05;4.95;;;;;;;;;;4952398;29;20229;-65
2022/07/13 03:34:18;;;;;;;11.63;4.53;;;;;;;;;;4952469;29;20446;-66
2022/07/13 03:36:46;;;;;;;8.35;4.35;;;;;;;;;;4952714;29;20035;-67
2022/07/13 03:39:12;;;;;;;10.52;4.10;;;;;;;;;;4953075;29;20486;-70
2022/07/13 03:41:38;;;;;;;12.88;4.15;;;;;;;;;;4953120;29;20050;-67
2022/07/13 03:44:05;;;;;;;8.35;3.63;;;;;;;;;;4952618;29;20039;-70
2022/07/13 03:46:32;;;;;;;7.57;3.00;;;;;;;;;;4952040;29;20039;-69
2022/07/13 03:48:59;;;;;;;9.23;3.33;;;;;;;;;;4952397;29;20034;-66
2022/07/13 03:51:27;;;;;;;6.53;2.90;;;;;;;;;;4952369;29;20035;-71
2022/07/13 03:53:53;;;;;;;7.22;2.80;;;;;;;;;;4952049;29;20023;-67
2022/07/13 03:56:19;;;;;;;8.43;3.13;;;;;;;;;;4952919;28;20105;-70
2022/07/13 03:58:46;;;;;;;13.15;3.13;;;;;;;;;;4951584;29;20039;-66
2022/07/13 04:01:11;;;;;;;7.75;2.83;;;;;;;;;;4959941;28;20041;-68
2022/07/13 04:03:37;;;;;;;11.43;3.22;;;;;;;;;;4971373;28;20085;-66
2022/07/13 04:06:04;;;;;;;4.95;2.67;;;;;;;;;;4970638;28;20034;-71
2022/07/13 04:08:30;;;;;;;8.82;2.97;;;;;;;;;;4970781;28;20030;-67
2022/07/13 04:10:57;;;;;;;5.18;2.95;;;;;;;;;;4970675;28;20393;-70
2022/07/13 04:13:24;;;;;;;7.95;2.70;;;;;;;;;;4971465;28;20158;-66
2022/07/13 04:15:50;;;;;;;8.50;3.53;;;;;;;;;;4970766;28;20047;-66
2022/07/13 04:18:16;;;;;;;6.03;2.83;;;;;;;;;;4960555;28;20039;-66
2022/07/13 04:20:42;;;;;;;7.65;2.60;;;;;;;;;;4962906;28;20086;-66
2022/07/13 04:23:08;;;;;;;4.07;2.28;;;;;;;;;;4970864;28;20035;-66
2022/07/13 04:25:34;;;;;;;10.57;2.67;;;;;;;;;;4955007;29;20031;-66
2022/07/13 04:28:00;;;;;;;5.50;1.83;;;;;;;;;;4956034;28;20027;-66
2022/07/13 04:30:27;;;;;;;4.93;1.70;;;;;;;;;;4955991;29;20125;-67
2022/07/13 04:32:54;;;;;;;8.27;2.17;;;;;;;;;;4958018;28;20662;-68
2022/07/13 04:35:21;;;;;;;7.70;2.15;;;;;;;;;;4954927;28;20039;-65
2022/07/13 04:37:48;;;;;;;14.80;3.20;;;;;;;;;;4972153;28;20035;-66
2022/07/13 04:40:15;;;;;;;10.05;2.55;;;;;;;;;;4967104;28;20035;-68
2022/07/13 04:42:41;;;;;;;11.23;3.28;;;;;;;;;;4954619;28;20119;-69
2022/07/13 04:45:09;;;;;;;10.90;2.67;;;;;;;;;;4954157;28;20039;-66
2022/07/13 04:47:37;;;;;;;8.63;3.10;;;;;;;;;;4954061;28;20027;-68
2022/07/13 04:50:03;;;;;;;6.90;2.40;;;;;;;;;;4954171;28;20035;-69
2022/07/13 04:52:29;;;;;;;6.57;2.50;;;;;;;;;;4954051;28;20119;-69
2022/07/13 04:54:55;;;;;;;4.82;2.28;;;;;;;;;;4953901;28;20035;-67
2022/07/13 04:57:21;;;;;;;9.52;2.88;;;;;;;;;;4965022;28;20086;-67
2022/07/13 04:59:47;;;;;;;21.30;4.05;;;;;;;;;;4960514;28;20043;-68
2022/07/13 05:02:13;;;;;;;11.18;3.35;;;;;;;;;;4953434;28;20650;-69
2022/07/13 05:04:39;;;;;;;7.28;2.85;;;;;;;;;;4955149;29;20035;-68
2022/07/13 05:07:05;;;;;;;6.63;2.83;;;;;;;;;;4971138;28;20019;-67
2022/07/13 05:09:33;;;;;;;5.13;2.50;;;;;;;;;;4990405;28;20045;-67
2022/07/13 05:11:59;;;;;;;5.60;2.10;;;;;;;;;;4973776;28;20113;-67
2022/07/13 05:14:25;;;;;;;5.70;2.65;;;;;;;;;;4973729;28;20030;-69
2022/07/13 05:16:52;;;;;;;7.38;2.60;;;;;;;;;;4973870;28;20033;-69
2022/07/13 05:19:18;;;;;;;4.38;2.00;;;;;;;;;;4973478;28;20035;-68
2022/07/13 05:21:44;;;;;;;8.68;2.47;;;;;;;;;;4972650;28;20031;-66
2022/07/13 05:24:12;;;;;;;7.40;2.83;;;;;;;;;;4972590;28;20129;-66
2022/07/13 05:26:38;;;;;;;5.40;1.95;;;;;;;;;;4973260;28;20134;-70
2022/07/13 05:29:06;;;;;;;5.13;1.90;;;;;;;;;;4974277;28;20039;-69
2022/07/13 05:31:35;;;;;;;5.43;2.20;;;;;;;;;;4990546;28;20027;-69
2022/07/13 05:34:02;;;;;;;5.18;2.15;;;;;;;;;;4974253;28;20039;-67
2022/07/13 05:36:31;;;;;;;3.90;1.90;;;;;;;;;;4974062;28;20058;-67
2022/07/13 05:38:57;;;;;;;6.30;2.47;;;;;;;;;;4974030;28;20489;-68
2022/07/13 05:41:23;;;;;;;4.50;2.05;;;;;;;;;;4974053;28;20034;-67
2022/07/13 05:43:50;;;;;;;4.10;2.30;;;;;;;;;;4973889;28;20038;-71
2022/07/13 05:46:16;;;;;;;10.60;3.55;;;;;;;;;;4973832;28;20027;-67
2022/07/13 05:48:42;;;;;;;5.65;2.25;;;;;;;;;;4973786;28;20039;-71
2022/07/13 05:51:08;;;;;;;3.97;1.83;;;;;;;;;;4975191;28;20026;-67
2022/07/13 05:53:36;;;;;;;7.18;2.33;;;;;;;;;;4973605;28;20039;-69
2022/07/13 05:56:01;;;;;;;4.32;1.88;;;;;;;;;;4973445;28;20041;-68
2022/07/13 05:58:27;;;;;;;8.35;2.15;;;;;;;;;;4974766;28;20428;-68
2022/07/13 06:00:53;;;;;;;5.05;2.15;;;;;;;;;;4974881;28;20039;-69
2022/07/13 06:03:19;;;;;;;11.43;2.25;;;;;;;;;;4975365;28;20070;-74
2022/07/13 06:05:45;;;;;;;4.97;1.95;;;;;;;;;;4975180;28;20034;-67
2022/07/13 06:08:10;;;;;;;6.97;2.40;;;;;;;;;;4974292;28;20039;-73
2022/07/13 06:10:36;;;;;;;10.48;2.03;;;;;;;;;;4974496;28;20465;-68
2022/07/13 06:13:02;;;;;;;1.98;1.33;;;;;;;;;;4974885;28;20069;-73
2022/07/13 06:15:28;;;;;;;4.10;1.35;;;;;;;;;;4974469;28;20038;-73
2022/07/13 06:17:54;;;;;;;5.20;1.50;;;;;;;;;;4974759;28;20065;-70
2022/07/13 06:20:19;;;;;;;6.43;2.05;;;;;;;;;;4974749;28;20022;-69
2022/07/13 06:23:09;;;;;;;7.60;1.65;;;;;;;;;;4974274;28;20046;-70
2022/07/13 06:25:31;;;;;;;4.68;1.70;;;;;;;;;;4976563;28;20066;-68
2022/07/13 06:27:57;;;;;;;3.22;1.48;;;;;;;;;;4977405;28;20034;-70
2022/07/13 06:30:23;;;;;;;3.55;1.80;;;;;;;;;;4974378;28;20393;-72
2022/07/13 06:32:48;;;;;;;10.00;2.00;;;;;;;;;;4974747;28;20027;-71
2022/07/13 06:35:14;;;;;;;4.28;1.60;;;;;;;;;;4973915;28;20115;-72
2022/07/13 06:37:40;;;;;;;5.00;1.88;;;;;;;;;;4974331;28;20089;-72
2022/07/13 06:40:06;;;;;;;4.53;1.70;;;;;;;;;;4974423;28;20035;-72
2022/07/13 06:42:32;;;;;;;2.50;1.27;;;;;;;;;;4974228;28;20383;-71
2022/07/13 06:44:58;;;;;;;7.63;1.77;;;;;;;;;;4972655;28;20077;-73
2022/07/13 06:47:24;;;;;;;4.72;1.95;;;;;;;;;;4992069;28;20116;-71
2022/07/13 06:49:50;;;;;;;5.25;1.50;;;;;;;;;;4993448;28;20031;-71
2022/07/13 06:52:16;;;;;;;4.93;1.73;;;;;;;;;;4993132;28;20350;-73
2022/07/13 06:54:42;;;;;;;8.07;1.70;;;;;;;;;;4992966;28;20049;-71
2022/07/13 06:57:07;;;;;;;11.30;1.60;;;;;;;;;;4958935;28;20043;-74
2022/07/13 06:59:34;;;;;;;2.47;1.27;;;;;;;;;;4954285;29;20094;-76
2022/07/13 07:02:00;;;;;;;7.03;1.58;;;;;;;;;;4954346;28;20103;-71
2022/07/13 07:04:26;;;;;;;2.95;1.50;;;;;;;;;;4954050;29;20065;-71
2022/07/13 07:06:51;;;;;;;2.38;1.33;;;;;;;;;;4954131;28;20096;-72
2022/07/13 07:09:17;;;;;;;3.75;1.10;;;;;;;;;;4953490;28;20031;-71
2022/07/13 07:11:44;;;;;;;4.10;1.40;;;;;;;;;;4954294;28;20028;-73
2022/07/13 07:14:10;;;;;;;5.72;1.35;;;;;;;;;;4954274;28;20032;-73
2022/07/13 07:16:37;;;;;;;2.97;1.40;;;;;;;;;;4954124;28;20035;-73
2022/07/13 07:19:03;;;;;;;2.45;1.30;;;;;;;;;;4953972;28;20117;-75
2022/07/13 07:21:29;;;;;;;4.82;1.60;;;;;;;;;;4961810;28;20018;-72
2022/07/13 07:23:55;;;;;;;5.75;1.98;;;;;;;;;;4972912;28;20151;-71
2022/07/13 07:26:21;;;;;;;4.45;1.58;;;;;;;;;;4972693;28;20023;-71
2022/07/13 07:28:47;;;;;;;2.40;1.25;;;;;;;;;;4973389;28;20035;-72
2022/07/13 07:31:13;;;;;;;2.20;1.23;;;;;;;;;;4973325;28;20026;-71
2022/07/13 07:33:39;;;;;;;3.63;1.60;;;;;;;;;;4968434;28;20039;-73
2022/07/13 07:36:05;;;;;;;3.28;1.30;;;;;;;;;;4953881;28;20339;-72
2022/07/13 07:38:31;;;;;;;4.60;1.10;;;;;;;;;;4953954;28;20036;-72
2022/07/13 07:41:01;;;;;;;6.15;1.85;;;;;;;;;;4953986;28;20031;-72
2022/07/13 07:43:27;;;;;;;2.60;1.33;;;;;;;;;;4953943;28;20483;-71
2022/07/13 07:45:53;;;;;;;3.17;1.25;;;;;;;;;;4953427;28;20027;-71
2022/07/13 07:48:20;;;;;;;3.83;1.58;;;;;;;;;;4954419;28;20051;-73
2022/07/13 07:50:46;;;;;;;2.70;1.27;;;;;;;;;;4957260;28;20059;-71
2022/07/13 07:53:12;;;;;;;1.80;1.40;;;;;;;;;;4955968;28;21192;-70
2022/07/13 07:55:37;;;;;;;6.38;1.85;;;;;;;;;;4957436;28;20122;-71
2022/07/13 07:58:03;;;;;;;10.82;1.40;;;;;;;;;;4957482;28;20102;-71
2022/07/13 08:00:30;;;;;;;2.83;1.30;;;;;;;;;;4972313;28;20046;-71
2022/07/13 08:03:02;;;;;;;2.90;1.17;;;;;;;;;;4976611;28;20038;-71
2022/07/13 08:05:29;;;;;;;2.60;1.30;;;;;;;;;;4976309;28;20042;-71
2022/07/13 08:07:55;;;;;;;3.78;1.30;;;;;;;;;;4976547;28;20146;-70
2022/07/13 08:10:21;;;;;;;5.95;1.50;;;;;;;;;;4976333;28;20059;-71
2022/07/13 08:12:47;;;;;;;2.80;1.20;;;;;;;;;;4963636;28;20073;-70
2022/07/13 08:15:13;;;;;;;3.33;1.20;;;;;;;;;;4957114;28;20041;-70
2022/07/13 08:17:39;;;;;;;3.65;1.10;;;;;;;;;;4957233;28;20031;-70
2022/07/13 08:20:08;;;;;;;4.50;1.30;;;;;;;;;;4958100;28;20157;-71
2022/07/13 08:22:34;;;;;;;5.25;1.70;;;;;;;;;;4957965;28;20031;-71
2022/07/13 08:25:00;;;;;;;4.60;1.40;;;;;;;;;;4965099;28;20125;-70
2022/07/13 08:27:27;;;;;;;4.88;1.80;;;;;;;;;;4975993;28;20019;-70
2022/07/13 08:29:53;;;;;;;3.58;1.30;;;;;;;;;;4975828;28;20041;-72
2022/07/13 08:32:18;;;;;;;5.38;1.30;;;;;;;;;;4975947;28;20027;-71
2022/07/13 08:40:13;;;;;;;5.30;1.60;;;;;;;;;;4979604;28;20042;-74
2022/07/13 08:42:39;;;;;;;2.58;1.55;;;;;;;;;;4980169;28;20035;-72
2022/07/13 08:45:06;;;;;;;2.90;1.50;;;;;;;;;;4977379;28;20042;-72
2022/07/13 08:47:35;;;;;;;5.43;1.40;;;;;;;;;;4976764;28;20027;-72
2022/07/13 08:50:05;;;;;;;3.17;1.38;;;;;;;;;;4977189;28;20041;-71
2022/07/13 08:52:33;;;;;;;3.20;1.35;;;;;;;;;;4977831;28;20039;-72
2022/07/13 08:54:59;;;;;;;10.43;9.43;;;;;;;;;;4979655;28;20114;-76
2022/07/13 08:57:26;;;;;;;4.20;1.35;;;;;;;;;;4981719;28;20047;-74
2022/07/13 08:59:51;;;;;;;3.72;1.60;;;;;;;;;;4984061;28;20039;-70
2022/07/13 09:02:17;;;;;;;5.60;1.60;;;;;;;;;;4982411;28;20050;-73
2022/07/13 09:04:44;;;;;;;2.28;1.42;;;;;;;;;;4965905;28;20027;-75
2022/07/13 09:07:11;;;;;;;6.45;1.58;;;;;;;;;;4966267;28;20050;-75
2022/07/13 09:09:38;;;;;;;3.67;1.00;;;;;;;;;;4967225;28;20078;-71
2022/07/13 09:12:21;;;;;;;4.07;1.20;;;;;;;;;;4964326;28;20043;-72
2022/07/13 09:15:06;;;;;;;3.05;0.95;;;;;;;;;;4966008;28;20027;-74
2022/07/13 09:17:37;;;;;;;5.45;1.20;;;;;;;;;;4985712;28;20102;-73
2022/07/13 09:20:12;;;;;;;2.97;1.20;;;;;;;;;;4982335;28;20027;-75
2022/07/13 09:22:54;;;;;;;4.53;1.40;;;;;;;;;;4975785;28;20089;-73
2022/07/13 09:25:32;;;;;;;3.53;1.20;;;;;;;;;;4983593;28;20043;-73
2022/07/13 09:28:03;;;;;;;5.10;1.40;;;;;;;;;;4984987;28;20500;-72
2022/07/13 09:30:29;;;;;;;2.72;1.20;;;;;;;;;;4969548;28;20098;-74
2022/07/13 09:32:57;;;;;;;2.00;1.13;;;;;;;;;;4985035;28;20081;-71
2022/07/13 09:35:49;;;;;;;1.73;1.10;;;;;;;;;;4981162;28;20121;-74
2022/07/13 09:38:28;;;;;;;1.27;0.90;;;;;;;;;;4957754;29;20482;-72
2022/07/13 09:40:55;;;;;;;4.88;1.80;;;;;;;;;;4972526;28;20054;-71
2022/07/13 09:46:11;;;;;;;3.58;1.10;;;;;;;;;;4985774;28;20398;-71
2022/07/13 09:48:37;;;;;;;4.18;1.10;;;;;;;;;;4982644;28;20101;-71
2022/07/13 09:51:05;;;;;;;4.90;1.30;;;;;;;;;;4982937;28;20027;-72
2022/07/13 09:53:33;;;;;;;7.70;1.40;;;;;;;;;;4977660;28;20131;-71
2022/07/13 09:56:04;;;;;;;2.35;1.10;;;;;;;;;;4964957;28;20027;-70
2022/07/13 09:58:35;;;;;;;3.03;1.35;;;;;;;;;;4964362;28;20126;-71
2022/07/13 10:01:03;;;;;;;3.35;1.20;;;;;;;;;;4965546;29;20054;-72
2022/07/13 10:03:30;;;;;;;3.50;1.30;;;;;;;;;;4964141;28;20027;-73
2022/07/13 10:05:57;;;;;;;5.60;1.30;;;;;;;;;;4966183;28;20058;-72
2022/07/13 10:08:23;;;;;;;2.47;1.10;;;;;;;;;;4966278;28;20037;-72
2022/07/13 10:10:52;;;;;;;6.47;1.30;;;;;;;;;;4966475;28;20085;-70
2022/07/13 10:13:18;;;;;;;4.90;1.25;;;;;;;;;;4964908;28;20082;-71
2022/07/13 10:15:45;;;;;;;4.05;1.20;;;;;;;;;;4964993;28;20042;-71
2022/07/13 10:18:22;;;;;;;5.45;1.58;;;;;;;;;;4961194;28;20097;-72
2022/07/13 10:20:57;;;;;;;2.25;1.20;;;;;;;;;;4963680;29;20099;-73
2022/07/13 10:23:38;;;;;;;5.25;1.80;;;;;;;;;;4965304;28;20435;-73
2022/07/13 10:26:17;;;;;;;2.70;1.40;;;;;;;;;;4964019;28;20035;-71
2022/07/13 10:28:42;;;;;;;2.95;1.15;;;;;;;;;;4965859;29;20066;-71
2022/07/13 10:31:28;;;;;;;4.10;1.02;;;;;;;;;;4965898;28;20125;-72
2022/07/13 10:33:54;;;;;;;2.42;1.02;;;;;;;;;;4963648;28;20035;-70
2022/07/13 10:36:51;;;;;;;4.07;1.40;;;;;;;;;;4959643;28;20034;-70
2022/07/13 10:39:23;;;;;;;2.60;1.20;;;;;;;;;;4958647;28;20553;-71
2022/07/13 10:42:01;;;;;;;2.85;1.17;;;;;;;;;;4966002;28;20057;-70
2022/07/13 10:44:31;;;;;;;2.72;1.60;;;;;;;;;;4972539;28;20023;-74
2022/07/13 10:46:57;;;;;;;2.70;1.10;;;;;;;;;;4986047;28;20050;-74
2022/07/13 10:49:47;;;;;;;3.25;1.02;;;;;;;;;;4986598;28;20023;-74
2022/07/13 10:52:22;;;;;;;4.93;1.33;;;;;;;;;;4981248;28;20427;-72
2022/07/13 10:55:03;;;;;;;3.38;1.33;;;;;;;;;;4977878;28;20027;-71
2022/07/13 10:57:30;;;;;;;4.32;1.20;;;;;;;;;;4980306;28;20053;-73
2022/07/13 11:02:50;;;;;;;2.15;1.15;;;;;;;;;;4985861;28;20074;-72
2022/07/13 11:05:17;;;;;;;4.75;1.30;;;;;;;;;;4986518;28;20027;-71
2022/07/13 11:07:48;;;;;;;4.50;1.40;;;;;;;;;;4984351;28;20031;-73
2022/07/13 11:10:18;;;;;;;4.72;1.17;;;;;;;;;;4971920;28;20497;-74
2022/07/13 11:13:08;;;;;;;4.35;1.77;;;;;;;;;;4966198;28;20088;-70
2022/07/13 11:15:47;;;;;;;2.88;1.13;;;;;;;;;;4965829;28;20067;-72
2022/07/13 11:18:22;;;;;;;2.25;1.30;;;;;;;;;;4971367;28;20474;-72
2022/07/13 11:21:03;;;;;;;1.40;0.95;;;;;;;;;;4982371;28;20031;-71
2022/07/13 11:26:38;;;;;;;2.47;1.00;;;;;;;;;;4987760;28;20155;-70
2022/07/13 11:29:15;;;;;;;4.68;1.10;;;;;;;;;;4987272;28;20035;-71
2022/07/13 11:31:41;;;;;;;2.42;1.00;;;;;;;;;;4987580;28;20039;-70
2022/07/13 11:34:07;;;;;;;2.45;1.10;;;;;;;;;;4989047;28;20474;-71
2022/07/13 11:36:33;;;;;;;3.10;1.35;;;;;;;;;;4987526;28;20118;-71
2022/07/13 11:39:00;;;;;;;3.53;1.02;;;;;;;;;;4989142;28;20058;-73
2022/07/13 11:41:26;;;;;;;2.70;1.25;;;;;;;;;;4988412;28;20034;-71
2022/07/13 11:43:53;;;;;;;3.45;1.25;;;;;;;;;;4981644;28;20029;-72
2022/07/13 11:46:24;;;;;;;1.48;0.98;;;;;;;;;;4978712;28;20039;-71
2022/07/13 11:49:04;;;;;;;5.15;1.10;;;;;;;;;;4980996;28;20035;-72
2022/07/13 11:51:30;;;;;;;2.72;1.10;;;;;;;;;;4965473;28;20027;-72
2022/07/13 11:54:09;;;;;;;3.03;1.30;;;;;;;;;;4966405;28;20023;-71
2022/07/13 11:56:44;;;;;;;6.28;1.10;;;;;;;;;;4979257;28;20478;-71
2022/07/13 11:59:10;;;;;;;3.63;1.13;;;;;;;;;;4982316;28;20027;-71
2022/07/13 12:01:36;;;;;;;4.93;1.10;;;;;;;;;;4980867;28;20114;-69
2022/07/13 12:04:03;;;;;;;2.20;1.02;;;;;;;;;;4984870;28;20039;-71
2022/07/13 12:06:29;;;;;;;2.70;0.80;;;;;;;;;;4984165;28;20047;-70
2022/07/13 12:08:56;;;;;;;1.73;0.93;;;;;;;;;;4981623;28;20041;-71
2022/07/13 12:11:22;;;;;;;4.43;0.90;;;;;;;;;;4980078;28;20363;-69
2022/07/13 12:13:48;;;;;;;1.95;0.80;;;;;;;;;;4973237;28;20346;-68
2022/07/13 12:16:15;;;;;;;2.75;0.80;;;;;;;;;;4986247;28;20094;-69
2022/07/13 12:18:57;;;;;;;4.00;1.13;;;;;;;;;;4977557;28;20039;-72
2022/07/13 12:21:23;;;;;;;3.33;0.85;;;;;;;;;;4963650;28;20471;-70
2022/07/13 12:23:49;;;;;;;4.35;1.02;;;;;;;;;;4996796;28;20030;-72
2022/07/13 12:26:15;;;;;;;3.67;1.55;;;;;;;;;;4972504;28;20045;-73
2022/07/13 12:28:42;;;;;;;3.15;0.90;;;;;;;;;;4957855;28;20493;-72
2022/07/13 12:31:09;;;;;;;2.95;1.20;;;;;;;;;;4974514;28;20034;-70
2022/07/13 12:33:46;;;;;;;1.55;0.88;;;;;;;;;;4969552;28;20058;-73
2022/07/13 12:36:18;;;;;;;2.70;1.20;;;;;;;;;;4967455;28;20395;-74
2022/07/13 12:39:01;;;;;;;1.60;1.05;;;;;;;;;;4956668;28;20463;-73
2022/07/13 12:41:41;;;;;;;;;;;;;;;;;;4970290;28;20031;-74
2022/07/13 12:44:08;;;;;;;4.57;1.20;;;;;;;;;;4993568;28;19924;-74
2022/07/13 12:46:45;;;;;;;2.53;1.20;;;;;;;;;;4995598;28;20026;-70
2022/07/13 12:49:12;;;;;;;3.97;1.10;;;;;;;;;;4987147;28;20035;-70
2022/07/13 12:52:10;;;;;;;2.42;1.20;;;;;;;;;;4974822;28;20059;-68
2022/07/13 12:54:46;;;;;;;3.05;1.00;;;;;;;;;;4977093;28;20632;-71
2022/07/13 12:57:15;;;;;;;3.90;1.10;;;;;;;;;;4976734;28;20398;-70
2022/07/13 13:00:13;;;;;;;4.75;0.90;;;;;;;;;;4961259;28;20058;-70
2022/07/13 13:02:40;;;;;;;3.28;1.15;;;;;;;;;;4955863;28;20027;-71
2022/07/13 13:05:09;;;;;;;2.17;1.10;;;;;;;;;;4955481;28;20114;-73
2022/07/13 13:07:36;;;;;;;2.33;1.20;;;;;;;;;;4973223;28;20046;-72
2022/07/13 13:10:03;;;;;;;5.72;1.20;;;;;;;;;;4967063;28;20026;-71
2022/07/13 13:12:29;;;;;;;1.40;0.90;;;;;;;;;;4964305;28;20031;-71
2022/07/13 13:14:55;;;;;;;4.47;1.50;;;;;;;;;;4966385;28;20074;-71
2022/07/13 13:17:21;;;;;;;3.88;1.00;;;;;;;;;;4985397;28;20065;-71
2022/07/13 13:19:46;;;;;;;3.53;1.20;;;;;;;;;;4981998;28;20104;-71
2022/07/13 13:22:12;;;;;;;2.92;1.25;;;;;;;;;;4972666;28;20034;-71
2022/07/13 13:24:39;;;;;;;1.65;0.88;;;;;;;;;;4965303;28;20137;-72
2022/07/13 13:27:05;;;;;;;1.65;1.00;;;;;;;;;;4965370;28;20066;-72
2022/07/13 13:32:20;;;;;;;3.25;1.35;;;;;;;;;;4974004;28;20038;-70
2022/07/13 13:34:47;;;;;;;4.90;1.13;;;;;;;;;;4953410;28;20671;-70
2022/07/13 13:37:13;;;;;;;4.65;1.20;;;;;;;;;;4956791;28;20086;-70
2022/07/13 13:39:39;;;;;;;3.40;1.08;;;;;;;;;;4965096;28;20015;-69
2022/07/13 13:42:05;;;;;;;2.83;1.20;;;;;;;;;;4972342;28;20034;-70
2022/07/13 13:44:31;;;;;;;1.30;0.90;;;;;;;;;;4973187;28;20027;-70
2022/07/13 13:46:57;;;;;;;2.50;1.00;;;;;;;;;;4971344;28;20046;-69
2022/07/13 13:49:23;;;;;;;2.25;1.20;;;;;;;;;;4972612;28;20031;-70
2022/07/13 13:51:48;;;;;;;3.13;1.17;;;;;;;;;;4972299;28;20045;-71
2022/07/13 13:54:15;;;;;;;3.22;1.23;;;;;;;;;;4967978;28;20019;-71
2022/07/13 13:56:41;;;;;;;6.93;1.30;;;;;;;;;;4952477;29;20054;-70
2022/07/13 13:59:07;;;;;;;3.25;1.20;;;;;;;;;;4954077;28;20040;-69
2022/07/13 14:01:32;;;;;;;2.33;1.20;;;;;;;;;;4955161;28;20406;-71
2022/07/13 14:03:58;;;;;;;1.85;1.20;;;;;;;;;;4954652;28;20394;-71
2022/07/13 14:06:24;;;;;;;4.85;1.27;;;;;;;;;;4954961;28;20046;-71
2022/07/13 14:08:51;;;;;;;3.30;1.10;;;;;;;;;;4975196;28;20033;-74
2022/07/13 14:11:17;;;;;;;3.17;1.35;;;;;;;;;;4980009;28;20121;-74
2022/07/13 14:13:43;;;;;;;2.88;1.20;;;;;;;;;;4972480;28;20035;-74
2022/07/13 14:16:10;;;;;;;1.95;0.98;;;;;;;;;;4973517;28;20042;-73
2022/07/13 14:18:36;;;;;;;1.42;0.90;;;;;;;;;;4978522;28;20027;-69
2022/07/13 14:21:02;;;;;;;2.38;1.00;;;;;;;;;;4977233;28;20027;-70
2022/07/13 14:23:28;;;;;;;2.03;1.00;;;;;;;;;;4975200;28;20023;-69
2022/07/13 14:25:54;;;;;;;6.05;1.13;;;;;;;;;;4975129;28;20039;-69
2022/07/13 14:28:20;;;;;;;2.85;1.10;;;;;;;;;;4974891;28;20050;-69
2022/07/13 14:30:46;;;;;;;5.63;1.00;;;;;;;;;;4974967;28;20042;-69
2022/07/13 14:33:14;;;;;;;2.95;1.25;;;;;;;;;;4974556;28;20144;-69
2022/07/13 14:35:44;;;;;;;3.83;1.02;;;;;;;;;;4974748;28;20034;-69
2022/07/13 14:38:14;;;;;;;2.72;1.00;;;;;;;;;;4974477;28;20034;-69
2022/07/13 14:40:41;;;;;;;6.35;1.15;;;;;;;;;;4974410;28;20492;-70
2022/07/13 14:43:08;;;;;;;5.80;1.20;;;;;;;;;;4974237;28;20101;-71
2022/07/13 14:45:34;;;;;;;3.53;1.00;;;;;;;;;;4974299;28;20027;-70
2022/07/13 14:48:02;;;;;;;3.15;1.20;;;;;;;;;;4974799;28;20027;-69
2022/07/13 14:50:32;;;;;;;1.58;1.00;;;;;;;;;;4974443;28;20089;-70
2022/07/13 14:52:58;;;;;;;2.30;1.00;;;;;;;;;;4974286;28;20027;-69
2022/07/13 14:55:25;;;;;;;2.40;0.90;;;;;;;;;;4974326;28;20094;-69
2022/07/13 14:57:51;;;;;;;3.13;1.10;;;;;;;;;;4974701;28;20082;-69
2022/07/13 15:00:17;;;;;;;4.60;1.30;;;;;;;;;;4973448;28;20043;-69
2022/07/13 15:02:42;;;;;;;4.15;1.23;;;;;;;;;;4974291;28;20033;-69
2022/07/13 15:05:12;;;;;;;2.70;1.17;;;;;;;;;;4974773;28;20055;-71
2022/07/13 15:07:43;;;;;;;2.88;1.10;;;;;;;;;;4974392;28;20078;-70